sensor_id;sensor_type;location;lat;lon;timestamp;P1;durP1;ratioP1;P2;durP2;ratioP2
75035;SDS011;64247;51.540;5.854;2023-04-28T00:01:07;7.28;;;5.38;;
75035;SDS011;64247;51.540;5.854;2023-04-28T00:03:09;8.90;;;5.63;;
75035;SDS011;64247;51.540;5.854;2023-04-28T00:05:10;11.73;;;5.57;;
75035;SDS011;64247;51.540;5.854;2023-04-28T00:07:11;11.05;;;5.07;;
75035;SDS011;64247;51.540;5.854;2023-04-28T00:09:12;8.38;;;5.63;;
75035;SDS011;64247;51.540;5.854;2023-04-28T00:11:13;9.45;;;5.97;;
75035;SDS011;64247;51.540;5.854;2023-04-28T00:13:14;10.25;;;5.85;;
75035;SDS011;64247;51.540;5.854;2023-04-28T00:15:15;10.80;;;6.65;;
75035;SDS011;64247;51.540;5.854;2023-04-28T00:17:16;9.23;;;5.00;;
75035;SDS011;64247;51.540;5.854;2023-04-28T00:19:17;10.02;;;5.00;;
75035;SDS011;64247;51.540;5.854;2023-04-28T00:21:17;10.65;;;5.95;;
75035;SDS011;64247;51.540;5.854;2023-04-28T00:23:18;10.52;;;5.55;;
75035;SDS011;64247;51.540;5.854;2023-04-28T00:25:19;11.70;;;6.18;;
75035;SDS011;64247;51.540;5.854;2023-04-28T00:27:20;10.52;;;5.30;;
75035;SDS011;64247;51.540;5.854;2023-04-28T00:29:21;12.60;;;6.03;;
75035;SDS011;64247;51.540;5.854;2023-04-28T00:31:22;9.77;;;5.57;;
75035;SDS011;64247;51.540;5.854;2023-04-28T00:33:23;12.15;;;6.05;;
75035;SDS011;64247;51.540;5.854;2023-04-28T00:35:24;9.73;;;6.13;;
75035;SDS011;64247;51.540;5.854;2023-04-28T00:37:24;11.05;;;6.28;;
75035;SDS011;64247;51.540;5.854;2023-04-28T00:39:25;12.60;;;6.10;;
75035;SDS011;64247;51.540;5.854;2023-04-28T00:41:27;11.98;;;6.47;;
75035;SDS011;64247;51.540;5.854;2023-04-28T00:43:27;13.48;;;6.35;;
75035;SDS011;64247;51.540;5.854;2023-04-28T00:45:29;12.88;;;6.78;;
75035;SDS011;64247;51.540;5.854;2023-04-28T00:47:34;15.57;;;6.72;;
75035;SDS011;64247;51.540;5.854;2023-04-28T00:49:37;11.80;;;6.35;;
75035;SDS011;64247;51.540;5.854;2023-04-28T00:51:38;13.30;;;6.75;;
75035;SDS011;64247;51.540;5.854;2023-04-28T00:53:39;8.60;;;5.97;;
75035;SDS011;64247;51.540;5.854;2023-04-28T00:55:41;11.10;;;6.82;;
75035;SDS011;64247;51.540;5.854;2023-04-28T00:57:41;10.35;;;6.90;;
75035;SDS011;64247;51.540;5.854;2023-04-28T00:59:42;13.20;;;6.93;;
75035;SDS011;64247;51.540;5.854;2023-04-28T01:01:43;12.23;;;7.57;;
75035;SDS011;64247;51.540;5.854;2023-04-28T01:03:45;14.63;;;7.70;;
75035;SDS011;64247;51.540;5.854;2023-04-28T01:05:46;15.32;;;7.20;;
75035;SDS011;64247;51.540;5.854;2023-04-28T01:07:48;12.13;;;6.00;;
75035;SDS011;64247;51.540;5.854;2023-04-28T01:09:49;11.90;;;6.53;;
75035;SDS011;64247;51.540;5.854;2023-04-28T01:11:55;11.55;;;5.88;;
75035;SDS011;64247;51.540;5.854;2023-04-28T01:14:23;12.57;;;5.85;;
75035;SDS011;64247;51.540;5.854;2023-04-28T01:16:24;10.25;;;5.80;;
75035;SDS011;64247;51.540;5.854;2023-04-28T01:18:27;11.73;;;5.80;;
75035;SDS011;64247;51.540;5.854;2023-04-28T01:20:29;9.35;;;5.63;;
75035;SDS011;64247;51.540;5.854;2023-04-28T01:22:30;12.02;;;6.13;;
75035;SDS011;64247;51.540;5.854;2023-04-28T01:24:31;11.27;;;5.88;;
75035;SDS011;64247;51.540;5.854;2023-04-28T01:26:36;12.35;;;6.47;;
75035;SDS011;64247;51.540;5.854;2023-04-28T01:28:37;13.60;;;5.85;;
75035;SDS011;64247;51.540;5.854;2023-04-28T01:30:38;13.00;;;6.32;;
75035;SDS011;64247;51.540;5.854;2023-04-28T01:32:39;10.52;;;5.82;;
75035;SDS011;64247;51.540;5.854;2023-04-28T01:34:40;10.05;;;6.07;;
75035;SDS011;64247;51.540;5.854;2023-04-28T01:36:41;11.45;;;6.03;;
75035;SDS011;64247;51.540;5.854;2023-04-28T01:38:44;10.10;;;4.63;;
75035;SDS011;64247;51.540;5.854;2023-04-28T01:40:46;16.52;;;6.25;;
75035;SDS011;64247;51.540;5.854;2023-04-28T01:42:47;15.65;;;6.68;;
75035;SDS011;64247;51.540;5.854;2023-04-28T01:44:48;13.98;;;7.65;;
75035;SDS011;64247;51.540;5.854;2023-04-28T01:46:49;14.13;;;6.75;;
75035;SDS011;64247;51.540;5.854;2023-04-28T01:48:50;16.88;;;7.00;;
75035;SDS011;64247;51.540;5.854;2023-04-28T01:50:51;12.35;;;6.80;;
75035;SDS011;64247;51.540;5.854;2023-04-28T01:52:52;17.90;;;7.35;;
75035;SDS011;64247;51.540;5.854;2023-04-28T01:54:53;16.65;;;7.45;;
75035;SDS011;64247;51.540;5.854;2023-04-28T01:56:55;14.52;;;6.57;;
75035;SDS011;64247;51.540;5.854;2023-04-28T01:58:57;13.23;;;6.88;;
75035;SDS011;64247;51.540;5.854;2023-04-28T02:00:59;13.88;;;7.55;;
75035;SDS011;64247;51.540;5.854;2023-04-28T02:03:00;15.98;;;8.05;;
75035;SDS011;64247;51.540;5.854;2023-04-28T02:05:01;14.43;;;6.90;;
75035;SDS011;64247;51.540;5.854;2023-04-28T02:07:02;12.70;;;6.57;;
75035;SDS011;64247;51.540;5.854;2023-04-28T02:09:02;12.30;;;7.03;;
75035;SDS011;64247;51.540;5.854;2023-04-28T02:11:03;12.02;;;7.18;;
75035;SDS011;64247;51.540;5.854;2023-04-28T02:13:04;12.38;;;7.45;;
75035;SDS011;64247;51.540;5.854;2023-04-28T02:15:06;14.07;;;6.63;;
75035;SDS011;64247;51.540;5.854;2023-04-28T02:17:08;15.65;;;7.18;;
75035;SDS011;64247;51.540;5.854;2023-04-28T02:19:09;15.82;;;7.55;;
75035;SDS011;64247;51.540;5.854;2023-04-28T02:21:10;12.85;;;7.72;;
75035;SDS011;64247;51.540;5.854;2023-04-28T02:23:12;12.80;;;7.55;;
75035;SDS011;64247;51.540;5.854;2023-04-28T02:25:13;17.08;;;7.47;;
75035;SDS011;64247;51.540;5.854;2023-04-28T02:27:14;15.90;;;7.57;;
75035;SDS011;64247;51.540;5.854;2023-04-28T02:29:15;16.67;;;8.43;;
75035;SDS011;64247;51.540;5.854;2023-04-28T02:31:16;15.57;;;7.32;;
75035;SDS011;64247;51.540;5.854;2023-04-28T02:33:17;16.65;;;8.20;;
75035;SDS011;64247;51.540;5.854;2023-04-28T02:35:17;12.82;;;8.27;;
75035;SDS011;64247;51.540;5.854;2023-04-28T02:37:18;15.45;;;8.10;;
75035;SDS011;64247;51.540;5.854;2023-04-28T02:39:21;13.07;;;7.40;;
75035;SDS011;64247;51.540;5.854;2023-04-28T02:41:26;16.85;;;8.45;;
75035;SDS011;64247;51.540;5.854;2023-04-28T02:43:27;15.38;;;7.65;;
75035;SDS011;64247;51.540;5.854;2023-04-28T02:45:28;18.13;;;8.57;;
75035;SDS011;64247;51.540;5.854;2023-04-28T02:47:29;16.95;;;9.00;;
75035;SDS011;64247;51.540;5.854;2023-04-28T02:49:30;12.73;;;6.95;;
75035;SDS011;64247;51.540;5.854;2023-04-28T02:51:31;14.52;;;7.95;;
75035;SDS011;64247;51.540;5.854;2023-04-28T02:53:32;18.08;;;8.68;;
75035;SDS011;64247;51.540;5.854;2023-04-28T02:55:33;16.40;;;8.23;;
75035;SDS011;64247;51.540;5.854;2023-04-28T02:57:34;20.17;;;8.45;;
75035;SDS011;64247;51.540;5.854;2023-04-28T02:59:36;12.57;;;7.72;;
75035;SDS011;64247;51.540;5.854;2023-04-28T03:01:37;12.73;;;7.38;;
75035;SDS011;64247;51.540;5.854;2023-04-28T03:03:37;19.38;;;9.75;;
75035;SDS011;64247;51.540;5.854;2023-04-28T03:05:38;15.25;;;8.40;;
75035;SDS011;64247;51.540;5.854;2023-04-28T03:07:39;14.23;;;6.88;;
75035;SDS011;64247;51.540;5.854;2023-04-28T03:09:40;15.98;;;7.95;;
75035;SDS011;64247;51.540;5.854;2023-04-28T03:11:41;19.67;;;8.13;;
75035;SDS011;64247;51.540;5.854;2023-04-28T03:13:42;14.23;;;8.38;;
75035;SDS011;64247;51.540;5.854;2023-04-28T03:15:43;21.70;;;9.77;;
75035;SDS011;64247;51.540;5.854;2023-04-28T03:17:45;14.02;;;7.00;;
75035;SDS011;64247;51.540;5.854;2023-04-28T03:19:46;16.63;;;8.23;;
75035;SDS011;64247;51.540;5.854;2023-04-28T03:21:47;17.42;;;8.00;;
75035;SDS011;64247;51.540;5.854;2023-04-28T03:23:48;15.32;;;7.13;;
75035;SDS011;64247;51.540;5.854;2023-04-28T03:25:49;17.17;;;8.60;;
75035;SDS011;64247;51.540;5.854;2023-04-28T03:27:50;18.35;;;8.50;;
75035;SDS011;64247;51.540;5.854;2023-04-28T03:29:51;19.50;;;9.98;;
75035;SDS011;64247;51.540;5.854;2023-04-28T03:31:52;20.17;;;9.25;;
75035;SDS011;64247;51.540;5.854;2023-04-28T03:33:53;21.80;;;9.40;;
75035;SDS011;64247;51.540;5.854;2023-04-28T03:35:54;16.85;;;9.05;;
75035;SDS011;64247;51.540;5.854;2023-04-28T03:37:55;16.20;;;9.55;;
75035;SDS011;64247;51.540;5.854;2023-04-28T03:39:56;17.88;;;10.70;;
75035;SDS011;64247;51.540;5.854;2023-04-28T03:41:57;20.85;;;9.65;;
75035;SDS011;64247;51.540;5.854;2023-04-28T03:44:16;20.35;;;10.35;;
75035;SDS011;64247;51.540;5.854;2023-04-28T03:46:21;17.40;;;9.88;;
75035;SDS011;64247;51.540;5.854;2023-04-28T03:48:23;15.10;;;8.80;;
75035;SDS011;64247;51.540;5.854;2023-04-28T03:50:24;18.08;;;9.80;;
75035;SDS011;64247;51.540;5.854;2023-04-28T03:52:25;20.02;;;9.85;;
75035;SDS011;64247;51.540;5.854;2023-04-28T03:54:26;15.43;;;9.15;;
75035;SDS011;64247;51.540;5.854;2023-04-28T03:56:27;17.85;;;10.15;;
75035;SDS011;64247;51.540;5.854;2023-04-28T03:58:28;18.10;;;9.63;;
75035;SDS011;64247;51.540;5.854;2023-04-28T04:00:29;15.02;;;9.30;;
75035;SDS011;64247;51.540;5.854;2023-04-28T04:02:30;15.30;;;9.55;;
75035;SDS011;64247;51.540;5.854;2023-04-28T04:04:31;16.27;;;9.63;;
75035;SDS011;64247;51.540;5.854;2023-04-28T04:06:32;19.52;;;9.50;;
75035;SDS011;64247;51.540;5.854;2023-04-28T04:08:33;16.40;;;9.38;;
75035;SDS011;64247;51.540;5.854;2023-04-28T04:10:34;17.10;;;9.25;;
75035;SDS011;64247;51.540;5.854;2023-04-28T04:12:35;16.02;;;8.32;;
75035;SDS011;64247;51.540;5.854;2023-04-28T04:14:36;14.73;;;8.48;;
75035;SDS011;64247;51.540;5.854;2023-04-28T04:16:36;19.35;;;9.73;;
75035;SDS011;64247;51.540;5.854;2023-04-28T04:18:38;11.60;;;7.00;;
75035;SDS011;64247;51.540;5.854;2023-04-28T04:20:53;17.80;;;10.40;;
75035;SDS011;64247;51.540;5.854;2023-04-28T04:22:56;21.23;;;10.45;;
75035;SDS011;64247;51.540;5.854;2023-04-28T04:24:57;17.02;;;10.57;;
75035;SDS011;64247;51.540;5.854;2023-04-28T04:26:59;17.13;;;10.50;;
75035;SDS011;64247;51.540;5.854;2023-04-28T04:29:10;17.80;;;9.80;;
75035;SDS011;64247;51.540;5.854;2023-04-28T04:31:11;19.55;;;10.27;;
75035;SDS011;64247;51.540;5.854;2023-04-28T04:33:12;20.95;;;10.48;;
75035;SDS011;64247;51.540;5.854;2023-04-28T04:35:13;19.45;;;10.68;;
75035;SDS011;64247;51.540;5.854;2023-04-28T04:37:14;18.80;;;11.13;;
75035;SDS011;64247;51.540;5.854;2023-04-28T04:39:21;21.77;;;10.13;;
75035;SDS011;64247;51.540;5.854;2023-04-28T04:41:22;21.48;;;11.20;;
75035;SDS011;64247;51.540;5.854;2023-04-28T04:43:28;17.70;;;10.55;;
75035;SDS011;64247;51.540;5.854;2023-04-28T04:45:29;21.20;;;11.50;;
75035;SDS011;64247;51.540;5.854;2023-04-28T04:47:30;18.55;;;10.13;;
75035;SDS011;64247;51.540;5.854;2023-04-28T04:49:31;16.67;;;9.98;;
75035;SDS011;64247;51.540;5.854;2023-04-28T04:51:32;20.65;;;11.93;;
75035;SDS011;64247;51.540;5.854;2023-04-28T04:53:33;18.75;;;10.25;;
75035;SDS011;64247;51.540;5.854;2023-04-28T04:55:34;18.83;;;10.65;;
75035;SDS011;64247;51.540;5.854;2023-04-28T04:57:36;21.02;;;10.93;;
75035;SDS011;64247;51.540;5.854;2023-04-28T04:59:44;22.48;;;10.50;;
75035;SDS011;64247;51.540;5.854;2023-04-28T05:01:49;24.35;;;11.32;;
75035;SDS011;64247;51.540;5.854;2023-04-28T05:03:50;20.67;;;11.05;;
75035;SDS011;64247;51.540;5.854;2023-04-28T05:05:51;20.75;;;11.35;;
75035;SDS011;64247;51.540;5.854;2023-04-28T05:08:06;18.15;;;10.43;;
75035;SDS011;64247;51.540;5.854;2023-04-28T05:10:08;17.60;;;10.43;;
75035;SDS011;64247;51.540;5.854;2023-04-28T05:12:11;17.08;;;10.25;;
75035;SDS011;64247;51.540;5.854;2023-04-28T05:14:11;22.45;;;10.88;;
75035;SDS011;64247;51.540;5.854;2023-04-28T05:16:14;22.63;;;9.98;;
75035;SDS011;64247;51.540;5.854;2023-04-28T05:18:34;16.00;;;10.30;;
75035;SDS011;64247;51.540;5.854;2023-04-28T05:20:36;18.35;;;11.13;;
75035;SDS011;64247;51.540;5.854;2023-04-28T05:22:37;16.90;;;10.30;;
75035;SDS011;64247;51.540;5.854;2023-04-28T05:24:38;14.88;;;9.95;;
75035;SDS011;64247;51.540;5.854;2023-04-28T05:26:38;20.83;;;11.60;;
75035;SDS011;64247;51.540;5.854;2023-04-28T05:28:42;20.50;;;10.95;;
75035;SDS011;64247;51.540;5.854;2023-04-28T05:30:43;17.08;;;9.90;;
75035;SDS011;64247;51.540;5.854;2023-04-28T05:32:45;18.65;;;11.13;;
75035;SDS011;64247;51.540;5.854;2023-04-28T05:34:46;18.95;;;9.90;;
75035;SDS011;64247;51.540;5.854;2023-04-28T05:36:47;18.50;;;10.52;;
75035;SDS011;64247;51.540;5.854;2023-04-28T05:38:48;14.55;;;10.35;;
75035;SDS011;64247;51.540;5.854;2023-04-28T05:40:50;15.98;;;9.05;;
75035;SDS011;64247;51.540;5.854;2023-04-28T05:42:51;15.80;;;9.05;;
75035;SDS011;64247;51.540;5.854;2023-04-28T05:44:52;11.90;;;6.97;;
75035;SDS011;64247;51.540;5.854;2023-04-28T05:46:53;16.63;;;9.52;;
75035;SDS011;64247;51.540;5.854;2023-04-28T05:48:58;14.60;;;9.18;;
75035;SDS011;64247;51.540;5.854;2023-04-28T05:51:01;14.80;;;9.68;;
75035;SDS011;64247;51.540;5.854;2023-04-28T05:53:03;12.10;;;5.22;;
75035;SDS011;64247;51.540;5.854;2023-04-28T05:55:04;16.25;;;8.75;;
75035;SDS011;64247;51.540;5.854;2023-04-28T05:57:08;13.77;;;7.35;;
75035;SDS011;64247;51.540;5.854;2023-04-28T05:59:09;15.88;;;8.85;;
75035;SDS011;64247;51.540;5.854;2023-04-28T06:01:10;14.63;;;9.18;;
75035;SDS011;64247;51.540;5.854;2023-04-28T06:03:12;14.10;;;9.20;;
75035;SDS011;64247;51.540;5.854;2023-04-28T06:05:15;15.80;;;9.00;;
75035;SDS011;64247;51.540;5.854;2023-04-28T06:07:16;13.10;;;8.07;;
75035;SDS011;64247;51.540;5.854;2023-04-28T06:09:17;13.32;;;7.45;;
75035;SDS011;64247;51.540;5.854;2023-04-28T06:11:19;16.77;;;8.88;;
75035;SDS011;64247;51.540;5.854;2023-04-28T06:13:22;14.25;;;8.98;;
75035;SDS011;64247;51.540;5.854;2023-04-28T06:15:23;16.50;;;8.93;;
75035;SDS011;64247;51.540;5.854;2023-04-28T06:17:24;14.07;;;9.13;;
75035;SDS011;64247;51.540;5.854;2023-04-28T06:19:25;14.63;;;8.85;;
75035;SDS011;64247;51.540;5.854;2023-04-28T06:21:26;13.57;;;8.73;;
75035;SDS011;64247;51.540;5.854;2023-04-28T06:23:27;14.85;;;8.40;;
75035;SDS011;64247;51.540;5.854;2023-04-28T06:25:28;16.20;;;9.43;;
75035;SDS011;64247;51.540;5.854;2023-04-28T06:27:30;13.95;;;9.18;;
75035;SDS011;64247;51.540;5.854;2023-04-28T06:29:32;11.55;;;7.30;;
75035;SDS011;64247;51.540;5.854;2023-04-28T06:31:32;19.20;;;8.68;;
75035;SDS011;64247;51.540;5.854;2023-04-28T06:33:33;14.57;;;9.48;;
75035;SDS011;64247;51.540;5.854;2023-04-28T06:35:34;15.82;;;8.55;;
75035;SDS011;64247;51.540;5.854;2023-04-28T06:37:37;14.00;;;9.45;;
75035;SDS011;64247;51.540;5.854;2023-04-28T06:39:38;15.27;;;7.13;;
75035;SDS011;64247;51.540;5.854;2023-04-28T06:41:40;12.18;;;8.15;;
75035;SDS011;64247;51.540;5.854;2023-04-28T06:43:41;13.57;;;8.10;;
75035;SDS011;64247;51.540;5.854;2023-04-28T06:45:49;12.73;;;7.85;;
75035;SDS011;64247;51.540;5.854;2023-04-28T06:47:50;11.98;;;8.35;;
75035;SDS011;64247;51.540;5.854;2023-04-28T06:49:54;16.70;;;8.10;;
75035;SDS011;64247;51.540;5.854;2023-04-28T06:51:56;14.27;;;8.32;;
75035;SDS011;64247;51.540;5.854;2023-04-28T06:53:57;12.50;;;7.13;;
75035;SDS011;64247;51.540;5.854;2023-04-28T06:55:58;13.30;;;9.20;;
75035;SDS011;64247;51.540;5.854;2023-04-28T06:58:01;13.60;;;6.90;;
75035;SDS011;64247;51.540;5.854;2023-04-28T07:00:02;10.55;;;6.88;;
75035;SDS011;64247;51.540;5.854;2023-04-28T07:02:04;12.38;;;9.07;;
75035;SDS011;64247;51.540;5.854;2023-04-28T07:04:05;10.43;;;6.07;;
75035;SDS011;64247;51.540;5.854;2023-04-28T07:06:05;11.95;;;5.65;;
75035;SDS011;64247;51.540;5.854;2023-04-28T07:08:07;12.38;;;6.53;;
75035;SDS011;64247;51.540;5.854;2023-04-28T07:10:07;12.02;;;8.23;;
75035;SDS011;64247;51.540;5.854;2023-04-28T07:12:09;11.27;;;6.78;;
75035;SDS011;64247;51.540;5.854;2023-04-28T07:14:10;12.85;;;8.02;;
75035;SDS011;64247;51.540;5.854;2023-04-28T07:16:11;12.88;;;8.50;;
75035;SDS011;64247;51.540;5.854;2023-04-28T07:18:12;8.77;;;6.20;;
75035;SDS011;64247;51.540;5.854;2023-04-28T07:20:13;12.32;;;7.45;;
75035;SDS011;64247;51.540;5.854;2023-04-28T07:22:14;10.00;;;6.43;;
75035;SDS011;64247;51.540;5.854;2023-04-28T07:24:15;12.57;;;7.88;;
75035;SDS011;64247;51.540;5.854;2023-04-28T07:26:16;13.48;;;8.00;;
75035;SDS011;64247;51.540;5.854;2023-04-28T07:28:17;10.98;;;8.32;;
75035;SDS011;64247;51.540;5.854;2023-04-28T07:30:19;13.18;;;7.22;;
75035;SDS011;64247;51.540;5.854;2023-04-28T07:32:21;11.65;;;8.05;;
75035;SDS011;64247;51.540;5.854;2023-04-28T07:34:22;10.52;;;6.78;;
75035;SDS011;64247;51.540;5.854;2023-04-28T07:36:23;12.80;;;6.45;;
75035;SDS011;64247;51.540;5.854;2023-04-28T07:38:24;14.05;;;7.95;;
75035;SDS011;64247;51.540;5.854;2023-04-28T07:40:25;17.20;;;8.38;;
75035;SDS011;64247;51.540;5.854;2023-04-28T07:42:25;11.32;;;7.03;;
75035;SDS011;64247;51.540;5.854;2023-04-28T07:44:27;12.50;;;7.97;;
75035;SDS011;64247;51.540;5.854;2023-04-28T07:46:29;10.93;;;7.88;;
75035;SDS011;64247;51.540;5.854;2023-04-28T07:48:30;17.33;;;10.00;;
75035;SDS011;64247;51.540;5.854;2023-04-28T07:50:32;10.38;;;6.78;;
75035;SDS011;64247;51.540;5.854;2023-04-28T07:52:33;15.80;;;8.68;;
75035;SDS011;64247;51.540;5.854;2023-04-28T07:54:34;12.32;;;9.02;;
75035;SDS011;64247;51.540;5.854;2023-04-28T07:56:35;15.10;;;8.60;;
75035;SDS011;64247;51.540;5.854;2023-04-28T07:58:36;14.25;;;8.52;;
75035;SDS011;64247;51.540;5.854;2023-04-28T08:00:37;14.20;;;8.05;;
75035;SDS011;64247;51.540;5.854;2023-04-28T08:02:38;14.32;;;8.75;;
75035;SDS011;64247;51.540;5.854;2023-04-28T08:04:39;15.20;;;9.45;;
75035;SDS011;64247;51.540;5.854;2023-04-28T08:06:40;9.13;;;7.30;;
75035;SDS011;64247;51.540;5.854;2023-04-28T08:08:41;13.68;;;7.65;;
75035;SDS011;64247;51.540;5.854;2023-04-28T08:10:42;12.43;;;7.78;;
75035;SDS011;64247;51.540;5.854;2023-04-28T08:12:43;12.35;;;8.32;;
75035;SDS011;64247;51.540;5.854;2023-04-28T08:14:44;12.50;;;7.03;;
75035;SDS011;64247;51.540;5.854;2023-04-28T08:16:45;8.75;;;6.88;;
75035;SDS011;64247;51.540;5.854;2023-04-28T08:18:47;15.10;;;9.60;;
75035;SDS011;64247;51.540;5.854;2023-04-28T08:20:48;14.75;;;8.38;;
75035;SDS011;64247;51.540;5.854;2023-04-28T08:22:49;10.32;;;7.45;;
75035;SDS011;64247;51.540;5.854;2023-04-28T08:24:50;10.27;;;7.05;;
75035;SDS011;64247;51.540;5.854;2023-04-28T08:26:51;14.63;;;8.10;;
75035;SDS011;64247;51.540;5.854;2023-04-28T08:28:52;12.23;;;8.43;;
75035;SDS011;64247;51.540;5.854;2023-04-28T08:30:52;14.15;;;10.38;;
75035;SDS011;64247;51.540;5.854;2023-04-28T08:32:54;13.52;;;8.48;;
75035;SDS011;64247;51.540;5.854;2023-04-28T08:34:55;13.50;;;9.82;;
75035;SDS011;64247;51.540;5.854;2023-04-28T08:36:56;10.88;;;7.72;;
75035;SDS011;64247;51.540;5.854;2023-04-28T08:38:58;15.15;;;9.38;;
75035;SDS011;64247;51.540;5.854;2023-04-28T08:41:03;14.07;;;8.68;;
75035;SDS011;64247;51.540;5.854;2023-04-28T08:43:04;12.23;;;7.78;;
75035;SDS011;64247;51.540;5.854;2023-04-28T08:45:06;13.52;;;8.85;;
75035;SDS011;64247;51.540;5.854;2023-04-28T08:47:13;21.00;;;10.88;;
75035;SDS011;64247;51.540;5.854;2023-04-28T08:49:15;15.10;;;9.32;;
75035;SDS011;64247;51.540;5.854;2023-04-28T08:51:24;21.13;;;10.00;;
75035;SDS011;64247;51.540;5.854;2023-04-28T08:53:35;18.80;;;11.52;;
75035;SDS011;64247;51.540;5.854;2023-04-28T08:55:38;17.70;;;10.73;;
75035;SDS011;64247;51.540;5.854;2023-04-28T08:57:44;17.45;;;10.77;;
75035;SDS011;64247;51.540;5.854;2023-04-28T08:59:50;19.30;;;11.50;;
75035;SDS011;64247;51.540;5.854;2023-04-28T09:01:52;23.55;;;12.07;;
75035;SDS011;64247;51.540;5.854;2023-04-28T09:03:53;15.48;;;12.20;;
75035;SDS011;64247;51.540;5.854;2023-04-28T09:05:54;14.85;;;9.40;;
75035;SDS011;64247;51.540;5.854;2023-04-28T09:07:55;15.45;;;11.23;;
75035;SDS011;64247;51.540;5.854;2023-04-28T09:12:34;16.02;;;11.75;;
75035;SDS011;64247;51.540;5.854;2023-04-28T09:14:37;16.38;;;11.27;;
75035;SDS011;64247;51.540;5.854;2023-04-28T09:16:39;13.55;;;9.90;;
75035;SDS011;64247;51.540;5.854;2023-04-28T09:18:41;19.23;;;11.40;;
75035;SDS011;64247;51.540;5.854;2023-04-28T09:21:06;19.30;;;13.13;;
75035;SDS011;64247;51.540;5.854;2023-04-28T09:23:16;13.20;;;9.30;;
75035;SDS011;64247;51.540;5.854;2023-04-28T09:25:19;20.10;;;12.60;;
75035;SDS011;64247;51.540;5.854;2023-04-28T09:27:25;18.40;;;13.38;;
75035;SDS011;64247;51.540;5.854;2023-04-28T09:29:28;15.23;;;10.45;;
75035;SDS011;64247;51.540;5.854;2023-04-28T09:31:33;16.02;;;11.85;;
75035;SDS011;64247;51.540;5.854;2023-04-28T09:33:44;19.08;;;13.35;;
75035;SDS011;64247;51.540;5.854;2023-04-28T09:35:57;21.08;;;15.70;;
75035;SDS011;64247;51.540;5.854;2023-04-28T09:37:58;19.00;;;12.63;;
75035;SDS011;64247;51.540;5.854;2023-04-28T09:40:17;19.77;;;11.50;;
75035;SDS011;64247;51.540;5.854;2023-04-28T09:44:39;21.48;;;14.20;;
75035;SDS011;64247;51.540;5.854;2023-04-28T09:48:53;21.58;;;12.35;;
75035;SDS011;64247;51.540;5.854;2023-04-28T09:51:03;23.08;;;13.70;;
75035;SDS011;64247;51.540;5.854;2023-04-28T09:53:07;20.83;;;13.52;;
75035;SDS011;64247;51.540;5.854;2023-04-28T09:55:12;19.85;;;16.20;;
75035;SDS011;64247;51.540;5.854;2023-04-28T09:57:14;18.90;;;13.43;;
75035;SDS011;64247;51.540;5.854;2023-04-28T09:59:20;19.27;;;14.25;;
75035;SDS011;64247;51.540;5.854;2023-04-28T10:01:22;11.93;;;8.10;;
75035;SDS011;64247;51.540;5.854;2023-04-28T10:03:25;18.75;;;12.40;;
75035;SDS011;64247;51.540;5.854;2023-04-28T10:05:29;15.57;;;11.15;;
75035;SDS011;64247;51.540;5.854;2023-04-28T10:07:32;15.32;;;11.35;;
75035;SDS011;64247;51.540;5.854;2023-04-28T10:09:35;14.45;;;10.32;;
75035;SDS011;64247;51.540;5.854;2023-04-28T10:11:37;18.63;;;13.98;;
75035;SDS011;64247;51.540;5.854;2023-04-28T10:13:39;17.90;;;12.68;;
75035;SDS011;64247;51.540;5.854;2023-04-28T10:15:42;15.50;;;10.30;;
75035;SDS011;64247;51.540;5.854;2023-04-28T10:17:43;14.75;;;11.15;;
75035;SDS011;64247;51.540;5.854;2023-04-28T10:19:47;13.77;;;9.45;;
75035;SDS011;64247;51.540;5.854;2023-04-28T10:21:54;13.75;;;8.65;;
75035;SDS011;64247;51.540;5.854;2023-04-28T10:24:33;7.50;;;5.53;;
75035;SDS011;64247;51.540;5.854;2023-04-28T10:27:11;11.38;;;7.25;;
75035;SDS011;64247;51.540;5.854;2023-04-28T10:29:13;9.13;;;6.43;;
75035;SDS011;64247;51.540;5.854;2023-04-28T10:31:15;20.63;;;13.50;;
75035;SDS011;64247;51.540;5.854;2023-04-28T10:35:42;21.90;;;12.40;;
75035;SDS011;64247;51.540;5.854;2023-04-28T10:43:01;25.73;;;13.20;;
75035;SDS011;64247;51.540;5.854;2023-04-28T10:45:04;25.13;;;9.75;;
75035;SDS011;64247;51.540;5.854;2023-04-28T10:47:08;31.08;;;16.92;;
75035;SDS011;64247;51.540;5.854;2023-04-28T10:49:09;20.58;;;10.68;;
75035;SDS011;64247;51.540;5.854;2023-04-28T11:00:53;24.58;;;13.55;;
75035;SDS011;64247;51.540;5.854;2023-04-28T11:02:54;20.65;;;11.98;;
75035;SDS011;64247;51.540;5.854;2023-04-28T11:05:15;25.95;;;17.30;;
75035;SDS011;64247;51.540;5.854;2023-04-28T11:07:18;22.45;;;12.52;;
75035;SDS011;64247;51.540;5.854;2023-04-28T11:17:01;24.80;;;11.98;;
75035;SDS011;64247;51.540;5.854;2023-04-28T11:19:19;14.52;;;8.48;;
75035;SDS011;64247;51.540;5.854;2023-04-28T11:21:24;20.25;;;12.23;;
75035;SDS011;64247;51.540;5.854;2023-04-28T11:23:27;22.10;;;13.85;;
75035;SDS011;64247;51.540;5.854;2023-04-28T11:25:29;21.77;;;14.40;;
75035;SDS011;64247;51.540;5.854;2023-04-28T11:28:02;18.63;;;11.23;;
75035;SDS011;64247;51.540;5.854;2023-04-28T11:30:18;13.75;;;9.13;;
75035;SDS011;64247;51.540;5.854;2023-04-28T11:32:25;14.30;;;9.07;;
75035;SDS011;64247;51.540;5.854;2023-04-28T11:34:50;15.38;;;9.85;;
75035;SDS011;64247;51.540;5.854;2023-04-28T11:36:51;18.80;;;10.75;;
75035;SDS011;64247;51.540;5.854;2023-04-28T11:38:53;15.45;;;11.00;;
75035;SDS011;64247;51.540;5.854;2023-04-28T11:40:56;15.00;;;9.75;;
75035;SDS011;64247;51.540;5.854;2023-04-28T11:42:58;15.95;;;10.65;;
75035;SDS011;64247;51.540;5.854;2023-04-28T11:45:00;17.65;;;9.32;;
75035;SDS011;64247;51.540;5.854;2023-04-28T11:47:01;12.05;;;7.45;;
75035;SDS011;64247;51.540;5.854;2023-04-28T11:49:04;18.98;;;13.30;;
75035;SDS011;64247;51.540;5.854;2023-04-28T11:51:05;13.95;;;10.60;;
75035;SDS011;64247;51.540;5.854;2023-04-28T11:53:06;14.75;;;10.32;;
75035;SDS011;64247;51.540;5.854;2023-04-28T11:55:07;9.90;;;7.43;;
75035;SDS011;64247;51.540;5.854;2023-04-28T11:57:17;12.23;;;9.25;;
75035;SDS011;64247;51.540;5.854;2023-04-28T11:59:30;13.20;;;9.95;;
75035;SDS011;64247;51.540;5.854;2023-04-28T12:01:34;13.18;;;9.05;;
75035;SDS011;64247;51.540;5.854;2023-04-28T12:03:46;11.13;;;7.00;;
75035;SDS011;64247;51.540;5.854;2023-04-28T12:05:47;10.70;;;8.40;;
75035;SDS011;64247;51.540;5.854;2023-04-28T12:07:48;9.15;;;6.35;;
75035;SDS011;64247;51.540;5.854;2023-04-28T12:12:28;9.20;;;6.50;;
75035;SDS011;64247;51.540;5.854;2023-04-28T12:14:52;6.13;;;4.30;;
75035;SDS011;64247;51.540;5.854;2023-04-28T12:16:58;11.50;;;9.07;;
75035;SDS011;64247;51.540;5.854;2023-04-28T12:18:59;8.70;;;6.60;;
75035;SDS011;64247;51.540;5.854;2023-04-28T12:21:01;12.00;;;10.25;;
75035;SDS011;64247;51.540;5.854;2023-04-28T12:23:03;10.02;;;6.00;;
75035;SDS011;64247;51.540;5.854;2023-04-28T12:25:05;8.88;;;6.68;;
75035;SDS011;64247;51.540;5.854;2023-04-28T12:27:27;11.57;;;8.65;;
75035;SDS011;64247;51.540;5.854;2023-04-28T12:29:37;12.85;;;8.30;;
75035;SDS011;64247;51.540;5.854;2023-04-28T12:31:47;11.60;;;7.90;;
75035;SDS011;64247;51.540;5.854;2023-04-28T12:33:52;13.23;;;9.75;;
75035;SDS011;64247;51.540;5.854;2023-04-28T12:35:53;11.63;;;8.05;;
75035;SDS011;64247;51.540;5.854;2023-04-28T12:37:56;9.60;;;7.82;;
75035;SDS011;64247;51.540;5.854;2023-04-28T12:39:58;9.18;;;5.82;;
75035;SDS011;64247;51.540;5.854;2023-04-28T12:41:59;8.20;;;6.75;;